sensor_id;sensor_type;location;lat;lon;timestamp;temperature;humidity
31809;DHT22;18379;48.208;-1.518;2024-02-15T00:01:01;14.00;99.90
31809;DHT22;18379;48.208;-1.518;2024-02-15T00:06:02;13.90;99.90
31809;DHT22;18379;48.208;-1.518;2024-02-15T00:11:03;14.00;99.90
31809;DHT22;18379;48.208;-1.518;2024-02-15T00:16:04;13.90;99.90
31809;DHT22;18379;48.208;-1.518;2024-02-15T00:21:05;13.90;99.90
31809;DHT22;18379;48.208;-1.518;2024-02-15T00:26:06;13.90;99.90
31809;DHT22;18379;48.208;-1.518;2024-02-15T00:31:07;13.90;99.90
31809;DHT22;18379;48.208;-1.518;2024-02-15T00:36:09;13.90;99.90
31809;DHT22;18379;48.208;-1.518;2024-02-15T00:41:10;13.90;99.90
31809;DHT22;18379;48.208;-1.518;2024-02-15T00:46:16;13.90;99.90
31809;DHT22;18379;48.208;-1.518;2024-02-15T00:51:17;13.90;99.90
31809;DHT22;18379;48.208;-1.518;2024-02-15T00:56:23;13.90;99.90
31809;DHT22;18379;48.208;-1.518;2024-02-15T01:01:27;13.90;99.90
31809;DHT22;18379;48.208;-1.518;2024-02-15T01:06:31;13.90;99.90
31809;DHT22;18379;48.208;-1.518;2024-02-15T01:11:33;13.90;99.90
31809;DHT22;18379;48.208;-1.518;2024-02-15T01:16:37;13.90;99.90
31809;DHT22;18379;48.208;-1.518;2024-02-15T01:21:38;13.90;99.90
31809;DHT22;18379;48.208;-1.518;2024-02-15T01:26:43;13.90;99.90
31809;DHT22;18379;48.208;-1.518;2024-02-15T01:31:44;14.00;99.90
31809;DHT22;18379;48.208;-1.518;2024-02-15T01:36:48;14.00;99.90
31809;DHT22;18379;48.208;-1.518;2024-02-15T01:41:52;14.00;99.90
31809;DHT22;18379;48.208;-1.518;2024-02-15T01:46:56;13.90;99.90
31809;DHT22;18379;48.208;-1.518;2024-02-15T01:51:58;13.90;99.90
31809;DHT22;18379;48.208;-1.518;2024-02-15T01:57:03;13.90;99.90
31809;DHT22;18379;48.208;-1.518;2024-02-15T02:02:08;14.00;99.90
31809;DHT22;18379;48.208;-1.518;2024-02-15T02:07:09;14.00;99.90
31809;DHT22;18379;48.208;-1.518;2024-02-15T02:12:10;14.10;99.90
31809;DHT22;18379;48.208;-1.518;2024-02-15T02:17:14;14.10;99.90
31809;DHT22;18379;48.208;-1.518;2024-02-15T02:22:16;14.10;99.90
31809;DHT22;18379;48.208;-1.518;2024-02-15T02:27:21;14.10;99.90
31809;DHT22;18379;48.208;-1.518;2024-02-15T02:32:24;14.00;99.90
31809;DHT22;18379;48.208;-1.518;2024-02-15T02:37:27;14.00;99.90
31809;DHT22;18379;48.208;-1.518;2024-02-15T02:42:28;13.90;99.90
31809;DHT22;18379;48.208;-1.518;2024-02-15T02:47:33;13.90;99.90
31809;DHT22;18379;48.208;-1.518;2024-02-15T02:52:34;13.90;99.90
31809;DHT22;18379;48.208;-1.518;2024-02-15T02:57:38;13.90;99.90
31809;DHT22;18379;48.208;-1.518;2024-02-15T03:02:39;13.90;99.90
31809;DHT22;18379;48.208;-1.518;2024-02-15T03:07:40;13.80;99.90
31809;DHT22;18379;48.208;-1.518;2024-02-15T03:12:45;13.90;99.90
31809;DHT22;18379;48.208;-1.518;2024-02-15T03:17:48;13.90;99.90
31809;DHT22;18379;48.208;-1.518;2024-02-15T03:22:56;13.80;99.90
31809;DHT22;18379;48.208;-1.518;2024-02-15T03:28:01;13.80;99.90
31809;DHT22;18379;48.208;-1.518;2024-02-15T03:33:05;13.80;99.90
31809;DHT22;18379;48.208;-1.518;2024-02-15T03:38:06;13.80;99.90
31809;DHT22;18379;48.208;-1.518;2024-02-15T03:43:08;13.70;99.90
31809;DHT22;18379;48.208;-1.518;2024-02-15T03:48:09;13.80;99.90
31809;DHT22;18379;48.208;-1.518;2024-02-15T03:53:10;13.80;99.90
31809;DHT22;18379;48.208;-1.518;2024-02-15T03:58:11;13.70;99.90
31809;DHT22;18379;48.208;-1.518;2024-02-15T04:03:15;13.60;99.90
31809;DHT22;18379;48.208;-1.518;2024-02-15T04:08:16;13.60;99.90
31809;DHT22;18379;48.208;-1.518;2024-02-15T04:13:20;13.70;99.90
31809;DHT22;18379;48.208;-1.518;2024-02-15T04:18:24;13.60;99.90
31809;DHT22;18379;48.208;-1.518;2024-02-15T04:23:25;13.60;99.90
31809;DHT22;18379;48.208;-1.518;2024-02-15T04:28:26;13.60;99.90
31809;DHT22;18379;48.208;-1.518;2024-02-15T04:33:29;13.50;99.90
31809;DHT22;18379;48.208;-1.518;2024-02-15T04:38:31;13.50;99.90
31809;DHT22;18379;48.208;-1.518;2024-02-15T04:43:31;13.50;99.90
31809;DHT22;18379;48.208;-1.518;2024-02-15T04:48:34;13.50;99.90
31809;DHT22;18379;48.208;-1.518;2024-02-15T04:53:35;13.50;99.90
31809;DHT22;18379;48.208;-1.518;2024-02-15T04:58:42;13.50;99.90
31809;DHT22;18379;48.208;-1.518;2024-02-15T05:03:46;13.50;99.90
31809;DHT22;18379;48.208;-1.518;2024-02-15T05:08:47;13.40;99.90
31809;DHT22;18379;48.208;-1.518;2024-02-15T05:13:49;13.40;99.90
31809;DHT22;18379;48.208;-1.518;2024-02-15T05:18:52;13.40;99.90
31809;DHT22;18379;48.208;-1.518;2024-02-15T05:23:53;13.30;99.90
31809;DHT22;18379;48.208;-1.518;2024-02-15T05:28:56;13.10;99.90
31809;DHT22;18379;48.208;-1.518;2024-02-15T05:33:57;13.10;99.90
31809;DHT22;18379;48.208;-1.518;2024-02-15T05:38:58;13.00;99.90
31809;DHT22;18379;48.208;-1.518;2024-02-15T05:44:06;13.00;99.90
31809;DHT22;18379;48.208;-1.518;2024-02-15T05:49:13;13.00;99.90
31809;DHT22;18379;48.208;-1.518;2024-02-15T05:54:17;13.00;99.90
31809;DHT22;18379;48.208;-1.518;2024-02-15T05:59:19;13.00;99.90
31809;DHT22;18379;48.208;-1.518;2024-02-15T06:04:21;13.00;99.90
31809;DHT22;18379;48.208;-1.518;2024-02-15T06:09:23;13.00;99.90
31809;DHT22;18379;48.208;-1.518;2024-02-15T06:14:27;12.90;99.90
31809;DHT22;18379;48.208;-1.518;2024-02-15T06:19:28;12.90;99.90
31809;DHT22;18379;48.208;-1.518;2024-02-15T06:24:29;12.80;99.90
31809;DHT22;18379;48.208;-1.518;2024-02-15T06:29:30;12.80;99.90
31809;DHT22;18379;48.208;-1.518;2024-02-15T06:34:49;12.80;99.90
31809;DHT22;18379;48.208;-1.518;2024-02-15T06:40:08;12.70;99.90
31809;DHT22;18379;48.208;-1.518;2024-02-15T06:45:10;12.80;99.90
31809;DHT22;18379;48.208;-1.518;2024-02-15T06:50:13;12.70;99.90
31809;DHT22;18379;48.208;-1.518;2024-02-15T06:55:14;12.70;99.90
31809;DHT22;18379;48.208;-1.518;2024-02-15T07:00:15;12.70;99.90
31809;DHT22;18379;48.208;-1.518;2024-02-15T07:05:16;12.70;99.90
31809;DHT22;18379;48.208;-1.518;2024-02-15T07:10:17;12.70;99.90
31809;DHT22;18379;48.208;-1.518;2024-02-15T07:15:18;12.70;99.90
31809;DHT22;18379;48.208;-1.518;2024-02-15T07:20:18;12.70;99.90
31809;DHT22;18379;48.208;-1.518;2024-02-15T07:25:19;12.70;99.90
31809;DHT22;18379;48.208;-1.518;2024-02-15T07:30:20;12.70;99.90
31809;DHT22;18379;48.208;-1.518;2024-02-15T07:35:21;12.80;99.90
31809;DHT22;18379;48.208;-1.518;2024-02-15T07:40:25;12.70;99.90
31809;DHT22;18379;48.208;-1.518;2024-02-15T07:45:28;12.80;99.90
31809;DHT22;18379;48.208;-1.518;2024-02-15T07:50:30;12.70;99.90
31809;DHT22;18379;48.208;-1.518;2024-02-15T07:55:31;12.80;99.90
31809;DHT22;18379;48.208;-1.518;2024-02-15T08:00:32;12.80;99.90
31809;DHT22;18379;48.208;-1.518;2024-02-15T08:05:32;12.80;99.90
31809;DHT22;18379;48.208;-1.518;2024-02-15T08:10:33;12.80;99.90
31809;DHT22;18379;48.208;-1.518;2024-02-15T08:15:34;12.90;99.90
31809;DHT22;18379;48.208;-1.518;2024-02-15T08:20:34;13.00;99.90
31809;DHT22;18379;48.208;-1.518;2024-02-15T08:25:38;13.00;99.90
31809;DHT22;18379;48.208;-1.518;2024-02-15T08:30:40;13.00;99.90
31809;DHT22;18379;48.208;-1.518;2024-02-15T08:35:41;13.00;99.90
31809;DHT22;18379;48.208;-1.518;2024-02-15T08:40:42;13.10;99.90
31809;DHT22;18379;48.208;-1.518;2024-02-15T08:45:44;13.20;99.90
31809;DHT22;18379;48.208;-1.518;2024-02-15T08:50:45;13.20;99.90
31809;DHT22;18379;48.208;-1.518;2024-02-15T08:55:46;13.20;99.90
31809;DHT22;18379;48.208;-1.518;2024-02-15T09:00:47;13.30;99.90
31809;DHT22;18379;48.208;-1.518;2024-02-15T09:05:47;13.30;99.90
31809;DHT22;18379;48.208;-1.518;2024-02-15T09:10:51;13.30;99.90
31809;DHT22;18379;48.208;-1.518;2024-02-15T09:15:53;13.40;99.90
31809;DHT22;18379;48.208;-1.518;2024-02-15T09:20:53;13.50;99.90
31809;DHT22;18379;48.208;-1.518;2024-02-15T09:25:55;13.60;99.90
31809;DHT22;18379;48.208;-1.518;2024-02-15T09:30:56;13.60;99.90
31809;DHT22;18379;48.208;-1.518;2024-02-15T09:35:59;13.60;99.90
31809;DHT22;18379;48.208;-1.518;2024-02-15T09:41:02;13.60;99.90
31809;DHT22;18379;48.208;-1.518;2024-02-15T09:46:03;13.80;99.90
31809;DHT22;18379;48.208;-1.518;2024-02-15T09:51:06;13.90;99.90
31809;DHT22;18379;48.208;-1.518;2024-02-15T09:56:07;14.10;99.90
31809;DHT22;18379;48.208;-1.518;2024-02-15T10:01:09;14.20;99.90
31809;DHT22;18379;48.208;-1.518;2024-02-15T10:06:11;14.40;99.90
31809;DHT22;18379;48.208;-1.518;2024-02-15T10:11:11;14.60;99.90
31809;DHT22;18379;48.208;-1.518;2024-02-15T10:16:17;14.70;99.90
31809;DHT22;18379;48.208;-1.518;2024-02-15T10:21:26;14.80;99.90
31809;DHT22;18379;48.208;-1.518;2024-02-15T10:26:27;14.70;99.90
31809;DHT22;18379;48.208;-1.518;2024-02-15T10:31:29;14.70;99.90
31809;DHT22;18379;48.208;-1.518;2024-02-15T10:36:30;14.70;99.90
31809;DHT22;18379;48.208;-1.518;2024-02-15T10:41:34;14.90;99.90
31809;DHT22;18379;48.208;-1.518;2024-02-15T10:46:36;15.00;99.90
31809;DHT22;18379;48.208;-1.518;2024-02-15T10:51:40;15.10;99.90
31809;DHT22;18379;48.208;-1.518;2024-02-15T10:56:44;15.20;99.90
31809;DHT22;18379;48.208;-1.518;2024-02-15T11:01:47;15.30;99.90
31809;DHT22;18379;48.208;-1.518;2024-02-15T11:06:51;15.50;99.90
31809;DHT22;18379;48.208;-1.518;2024-02-15T11:11:55;15.70;99.90
31809;DHT22;18379;48.208;-1.518;2024-02-15T11:16:57;15.90;99.90
31809;DHT22;18379;48.208;-1.518;2024-02-15T11:21:58;16.20;99.90
31809;DHT22;18379;48.208;-1.518;2024-02-15T11:27:00;16.50;99.90
31809;DHT22;18379;48.208;-1.518;2024-02-15T11:43:44;16.80;99.90
31809;DHT22;18379;48.208;-1.518;2024-02-15T11:48:30;16.70;99.90
31809;DHT22;18379;48.208;-1.518;2024-02-15T11:53:31;16.70;99.90
31809;DHT22;18379;48.208;-1.518;2024-02-15T11:58:33;16.70;99.90
31809;DHT22;18379;48.208;-1.518;2024-02-15T12:03:42;16.70;99.90
31809;DHT22;18379;48.208;-1.518;2024-02-15T12:09:02;16.60;99.90
31809;DHT22;18379;48.208;-1.518;2024-02-15T12:14:21;16.70;99.90
31809;DHT22;18379;48.208;-1.518;2024-02-15T12:19:40;16.80;99.90
31809;DHT22;18379;48.208;-1.518;2024-02-15T12:24:41;17.00;99.90
31809;DHT22;18379;48.208;-1.518;2024-02-15T12:29:42;16.80;99.90
31809;DHT22;18379;48.208;-1.518;2024-02-15T12:34:42;16.80;99.90
31809;DHT22;18379;48.208;-1.518;2024-02-15T12:39:44;16.90;99.90
31809;DHT22;18379;48.208;-1.518;2024-02-15T12:44:48;17.10;99.90
31809;DHT22;18379;48.208;-1.518;2024-02-15T12:49:49;17.00;99.90
31809;DHT22;18379;48.208;-1.518;2024-02-15T12:55:06;16.80;99.90
31809;DHT22;18379;48.208;-1.518;2024-02-15T13:00:09;16.70;99.90
31809;DHT22;18379;48.208;-1.518;2024-02-15T13:05:20;16.70;99.90
31809;DHT22;18379;48.208;-1.518;2024-02-15T13:10:22;16.70;99.90
31809;DHT22;18379;48.208;-1.518;2024-02-15T13:15:24;16.60;99.90
31809;DHT22;18379;48.208;-1.518;2024-02-15T13:20:27;16.70;99.90
31809;DHT22;18379;48.208;-1.518;2024-02-15T13:25:36;16.90;99.90
31809;DHT22;18379;48.208;-1.518;2024-02-15T13:30:37;17.10;99.90
31809;DHT22;18379;48.208;-1.518;2024-02-15T13:35:37;17.10;99.90
31809;DHT22;18379;48.208;-1.518;2024-02-15T13:40:38;17.10;99.90
31809;DHT22;18379;48.208;-1.518;2024-02-15T13:45:40;17.10;99.90
31809;DHT22;18379;48.208;-1.518;2024-02-15T13:50:41;17.20;99.90
31809;DHT22;18379;48.208;-1.518;2024-02-15T13:55:43;17.30;99.90
31809;DHT22;18379;48.208;-1.518;2024-02-15T14:00:44;17.30;99.90
31809;DHT22;18379;48.208;-1.518;2024-02-15T14:05:44;17.50;99.90
31809;DHT22;18379;48.208;-1.518;2024-02-15T14:10:47;17.70;99.90
31809;DHT22;18379;48.208;-1.518;2024-02-15T14:15:48;18.00;99.90
31809;DHT22;18379;48.208;-1.518;2024-02-15T14:20:49;18.20;99.90
31809;DHT22;18379;48.208;-1.518;2024-02-15T14:25:51;17.90;99.90
31809;DHT22;18379;48.208;-1.518;2024-02-15T14:30:53;18.00;99.90
31809;DHT22;18379;48.208;-1.518;2024-02-15T14:36:12;18.00;99.90
31809;DHT22;18379;48.208;-1.518;2024-02-15T14:41:14;18.00;99.90
31809;DHT22;18379;48.208;-1.518;2024-02-15T14:46:16;18.00;99.90
31809;DHT22;18379;48.208;-1.518;2024-02-15T14:51:17;17.90;99.90
31809;DHT22;18379;48.208;-1.518;2024-02-15T14:56:20;17.70;99.90
31809;DHT22;18379;48.208;-1.518;2024-02-15T15:01:21;17.60;99.90
31809;DHT22;18379;48.208;-1.518;2024-02-15T15:06:21;17.80;99.90
31809;DHT22;18379;48.208;-1.518;2024-02-15T15:11:41;17.80;99.90
31809;DHT22;18379;48.208;-1.518;2024-02-15T15:16:59;18.00;99.90
31809;DHT22;18379;48.208;-1.518;2024-02-15T15:22:00;18.10;99.90
31809;DHT22;18379;48.208;-1.518;2024-02-15T15:27:01;18.00;99.90
31809;DHT22;18379;48.208;-1.518;2024-02-15T15:32:02;17.90;99.90
31809;DHT22;18379;48.208;-1.518;2024-02-15T15:37:03;18.10;99.90
31809;DHT22;18379;48.208;-1.518;2024-02-15T15:42:04;18.00;99.90
31809;DHT22;18379;48.208;-1.518;2024-02-15T15:47:08;17.90;99.90
31809;DHT22;18379;48.208;-1.518;2024-02-15T15:52:09;17.90;99.90
31809;DHT22;18379;48.208;-1.518;2024-02-15T15:57:09;17.70;99.90
31809;DHT22;18379;48.208;-1.518;2024-02-15T16:02:10;17.60;99.90
31809;DHT22;18379;48.208;-1.518;2024-02-15T16:07:11;17.60;99.90
31809;DHT22;18379;48.208;-1.518;2024-02-15T16:12:12;17.50;99.90
31809;DHT22;18379;48.208;-1.518;2024-02-15T16:17:14;17.60;99.90
31809;DHT22;18379;48.208;-1.518;2024-02-15T16:22:14;17.50;99.90
31809;DHT22;18379;48.208;-1.518;2024-02-15T16:27:15;17.50;99.90
31809;DHT22;18379;48.208;-1.518;2024-02-15T16:32:16;17.40;99.90
31809;DHT22;18379;48.208;-1.518;2024-02-15T16:37:16;17.20;99.90
31809;DHT22;18379;48.208;-1.518;2024-02-15T16:42:17;17.10;99.90
31809;DHT22;18379;48.208;-1.518;2024-02-15T16:47:19;16.90;99.90
31809;DHT22;18379;48.208;-1.518;2024-02-15T16:52:21;16.90;99.90
31809;DHT22;18379;48.208;-1.518;2024-02-15T16:57:22;16.70;99.90
31809;DHT22;18379;48.208;-1.518;2024-02-15T17:02:23;16.60;99.90
31809;DHT22;18379;48.208;-1.518;2024-02-15T17:07:24;16.60;99.90
31809;DHT22;18379;48.208;-1.518;2024-02-15T17:12:26;16.50;99.90
31809;DHT22;18379;48.208;-1.518;2024-02-15T17:17:28;16.50;99.90
31809;DHT22;18379;48.208;-1.518;2024-02-15T17:22:29;16.40;99.90
31809;DHT22;18379;48.208;-1.518;2024-02-15T17:27:29;16.40;99.90
31809;DHT22;18379;48.208;-1.518;2024-02-15T17:32:30;16.30;99.90
31809;DHT22;18379;48.208;-1.518;2024-02-15T17:37:31;16.30;99.90
31809;DHT22;18379;48.208;-1.518;2024-02-15T17:42:31;16.20;99.90
31809;DHT22;18379;48.208;-1.518;2024-02-15T17:47:32;16.10;99.90
31809;DHT22;18379;48.208;-1.518;2024-02-15T17:52:33;16.00;99.90
31809;DHT22;18379;48.208;-1.518;2024-02-15T17:57:37;15.90;99.90
31809;DHT22;18379;48.208;-1.518;2024-02-15T18:02:39;15.80;99.90
31809;DHT22;18379;48.208;-1.518;2024-02-15T18:07:41;15.80;99.90
31809;DHT22;18379;48.208;-1.518;2024-02-15T18:12:41;15.60;99.90
31809;DHT22;18379;48.208;-1.518;2024-02-15T18:17:42;15.50;99.90
31809;DHT22;18379;48.208;-1.518;2024-02-15T18:22:45;15.50;99.90
31809;DHT22;18379;48.208;-1.518;2024-02-15T18:27:46;15.50;99.90
31809;DHT22;18379;48.208;-1.518;2024-02-15T18:32:47;15.40;99.90
31809;DHT22;18379;48.208;-1.518;2024-02-15T18:37:47;15.40;99.90
31809;DHT22;18379;48.208;-1.518;2024-02-15T18:42:48;15.50;99.90
31809;DHT22;18379;48.208;-1.518;2024-02-15T18:47:49;15.40;99.90
31809;DHT22;18379;48.208;-1.518;2024-02-15T18:52:50;15.40;99.90
31809;DHT22;18379;48.208;-1.518;2024-02-15T18:57:51;15.40;99.90
31809;DHT22;18379;48.208;-1.518;2024-02-15T19:02:53;15.30;99.90
31809;DHT22;18379;48.208;-1.518;2024-02-15T19:07:54;15.20;99.90
31809;DHT22;18379;48.208;-1.518;2024-02-15T19:12:55;15.20;99.90
31809;DHT22;18379;48.208;-1.518;2024-02-15T19:17:55;15.20;99.90
31809;DHT22;18379;48.208;-1.518;2024-02-15T19:22:56;15.20;99.90
31809;DHT22;18379;48.208;-1.518;2024-02-15T19:27:57;15.20;99.90
31809;DHT22;18379;48.208;-1.518;2024-02-15T19:32:58;15.30;99.90
31809;DHT22;18379;48.208;-1.518;2024-02-15T19:37:59;15.30;99.90
31809;DHT22;18379;48.208;-1.518;2024-02-15T19:42:59;15.20;99.90
31809;DHT22;18379;48.208;-1.518;2024-02-15T19:48:00;15.20;99.90
31809;DHT22;18379;48.208;-1.518;2024-02-15T19:53:01;15.10;99.90
31809;DHT22;18379;48.208;-1.518;2024-02-15T19:58:04;15.00;99.90
31809;DHT22;18379;48.208;-1.518;2024-02-15T20:03:05;14.90;99.90
31809;DHT22;18379;48.208;-1.518;2024-02-15T20:08:07;14.90;99.90
31809;DHT22;18379;48.208;-1.518;2024-02-15T20:13:07;14.80;99.90
31809;DHT22;18379;48.208;-1.518;2024-02-15T20:18:08;14.80;99.90
31809;DHT22;18379;48.208;-1.518;2024-02-15T20:23:09;14.70;99.90
31809;DHT22;18379;48.208;-1.518;2024-02-15T20:28:12;14.70;99.90
31809;DHT22;18379;48.208;-1.518;2024-02-15T20:33:16;14.60;99.90
31809;DHT22;18379;48.208;-1.518;2024-02-15T20:38:33;14.60;99.90
31809;DHT22;18379;48.208;-1.518;2024-02-15T20:43:33;14.50;99.90
31809;DHT22;18379;48.208;-1.518;2024-02-15T20:48:37;14.40;99.90
31809;DHT22;18379;48.208;-1.518;2024-02-15T20:53:48;14.40;99.90
31809;DHT22;18379;48.208;-1.518;2024-02-15T20:58:51;14.30;99.90
31809;DHT22;18379;48.208;-1.518;2024-02-15T21:03:52;14.30;99.90
31809;DHT22;18379;48.208;-1.518;2024-02-15T21:08:56;14.30;99.90
31809;DHT22;18379;48.208;-1.518;2024-02-15T21:14:00;14.20;99.90
31809;DHT22;18379;48.208;-1.518;2024-02-15T21:19:01;14.20;99.90
31809;DHT22;18379;48.208;-1.518;2024-02-15T21:24:09;14.20;99.90
31809;DHT22;18379;48.208;-1.518;2024-02-15T21:29:10;14.10;99.90
31809;DHT22;18379;48.208;-1.518;2024-02-15T21:34:12;14.10;99.90
31809;DHT22;18379;48.208;-1.518;2024-02-15T21:39:13;14.10;99.90
31809;DHT22;18379;48.208;-1.518;2024-02-15T21:44:14;14.10;99.90
31809;DHT22;18379;48.208;-1.518;2024-02-15T21:49:15;14.00;99.90
31809;DHT22;18379;48.208;-1.518;2024-02-15T21:54:15;14.10;99.90
31809;DHT22;18379;48.208;-1.518;2024-02-15T21:59:16;14.10;99.90
31809;DHT22;18379;48.208;-1.518;2024-02-15T22:04:18;14.10;99.90
31809;DHT22;18379;48.208;-1.518;2024-02-15T22:09:19;14.00;99.90
31809;DHT22;18379;48.208;-1.518;2024-02-15T22:14:23;14.10;99.90
31809;DHT22;18379;48.208;-1.518;2024-02-15T22:19:27;13.90;99.90
31809;DHT22;18379;48.208;-1.518;2024-02-15T22:24:28;14.00;99.90
31809;DHT22;18379;48.208;-1.518;2024-02-15T22:29:29;14.00;99.90
31809;DHT22;18379;48.208;-1.518;2024-02-15T22:34:33;13.80;99.90
31809;DHT22;18379;48.208;-1.518;2024-02-15T22:39:34;13.80;99.90
31809;DHT22;18379;48.208;-1.518;2024-02-15T22:44:34;13.80;99.90
31809;DHT22;18379;48.208;-1.518;2024-02-15T22:49:35;13.80;99.90
31809;DHT22;18379;48.208;-1.518;2024-02-15T22:54:37;13.70;99.90
31809;DHT22;18379;48.208;-1.518;2024-02-15T22:59:40;13.70;99.90
31809;DHT22;18379;48.208;-1.518;2024-02-15T23:04:41;13.70;99.90
31809;DHT22;18379;48.208;-1.518;2024-02-15T23:09:41;13.50;99.90
31809;DHT22;18379;48.208;-1.518;2024-02-15T23:14:43;13.50;99.90
31809;DHT22;18379;48.208;-1.518;2024-02-15T23:19:44;13.40;99.90
31809;DHT22;18379;48.208;-1.518;2024-02-15T23:24:45;13.50;99.90
31809;DHT22;18379;48.208;-1.518;2024-02-15T23:29:46;13.60;99.90
31809;DHT22;18379;48.208;-1.518;2024-02-15T23:34:46;13.60;99.90
31809;DHT22;18379;48.208;-1.518;2024-02-15T23:39:48;13.60;99.90
31809;DHT22;18379;48.208;-1.518;2024-02-15T23:45:07;13.80;99.90
31809;DHT22;18379;48.208;-1.518;2024-02-15T23:50:08;13.70;99.90
31809;DHT22;18379;48.208;-1.518;2024-02-15T23:55:19;13.80;99.90
